CheckWX is a tool to help pilots better visualize weather data.  It is not intended as a substitute for an official pre-flight weather briefing.

13:07:17 UTC

KROG TAF
Rogers Executive - Carter Field Airport
Rogers, Arkansas, USA
KROG 191156Z 1912/2012 VRB04KT P6SM SKC

Nov-19@
12:00 UTC

Nov-19 @ 12:00 UTC

Nov-20@
12:00 UTC

Nov-20 @ 12:00 UTC

KROG 191156Z 1912/2012 VRB04KT P6SM SKC
Wind
  • Variable at 4 KTS
Cloud Levels
  • Clear skies